New Bern, NC

3:12 PM EDT on August 28, 2016 (GMT -0400)
Craven County EOC | | Change Station

Elev 20 ft 35.11 °N, 77.04 °W | Updated 14 minutes ago

Light Rain
Light Rain
77.5 °F
Feels Like 79 °F
N
0.0
Wind Variable Wind from West

Today
High -- | Low -- °F
--% Chance of Precip.
Yesterday
High -- | Low -- °F
Precip. -- in
Pressure 30.14 in
Visibility 10.0 miles
Clouds Scattered Clouds 2500 ft
Scattered Clouds 4800 ft
Overcast 6500 ft
Heat Index 79 °F
Dew Point 73 °F
Humidity 86%
Rainfall 0.41 in
Snow Depth Not available.
6:38 AM 7:39 PM
Waning Crescent, 14% visible
METAR KEWN 281854Z 00000KT 10SM -RA SCT025 SCT048 OVC065 26/23 A3014 RMK AO2 LTG DSNT ALQDS RAE30B53 TSE19 SLP206 P0002 T02560233
Pressure 30.14 in
Visibility 10.0 miles
Clouds Scattered Clouds 2500 ft
Scattered Clouds 4800 ft
Overcast 6500 ft
Heat Index 79 °F
Dew Point 73 °F
Humidity 86%
Rainfall 0.41 in
Snow Depth Not available.
6:38 AM 7:39 PM
Waning Crescent, 14% visible
METAR KEWN 281854Z 00000KT 10SM -RA SCT025 SCT048 OVC065 26/23 A3014 RMK AO2 LTG DSNT ALQDS RAE30B53 TSE19 SLP206 P0002 T02560233

10-Day Weather Forecast

Almanac

Astronomy

Aug. 28, 2016 Rise Set
Actual Time
Civil Twilight
Nautical Twilight
Astronomical Twilight
Moon
Length of Visible Light
Length of Day
Tomorrow will be .
, % of the Moon is Illuminated

Today's Extremes

State Highs State Lows

Community

WunderPhotos

Upload Photos

1,935,660 photos uploaded!

WunderBlog® & News

Nearby

Air Quality

  Air Quality AQ Index Pollutant
Not available.

Snow Depth

Station Depth Elevation

Earthquake Activity

City Distance Mag. Time & Date
Minimum magnitude displayed is 2.5.

Coastal Water Temperatures

Place Temperature

Stations

Nearby Weather Stations

Station Location Temp. Windchill Dew Point Humidity Wind Precip. Elev Updated Type
                   

Watches & Warnings

There are currently no watches in effect.